Time;durP1;ratioP1;P1;durP2;ratioP2;P2;SDS_P1;SDS_P2;PMS_P1;PMS_P2;Temp;Humidity;BMP_temperature;BMP_pressure;BME280_temperature;BME280_humidity;BME280_pressure;Samples;Min_cycle;Max_cycle;Signal;HPM_P1;HPM_P2
2021/07/25 00:07:00;;;;;;;8.38;7.05;;;;;;;26.84;39.77;99977.45;1781606;109;26030;-79
2021/07/25 00:10:35;;;;;;;9.45;7.65;;;;;;;26.80;39.77;99978.08;1780997;109;26083;-75
2021/07/25 00:14:28;;;;;;;;;;;;;;;;;;;;;
2021/07/25 00:31:08;;;;;;;7.57;6.97;;;;;;;26.85;39.82;99965.80;1616482;117;25911;-78
2021/07/25 00:42:10;;;;;;;9.55;7.75;;;;;;;26.81;39.89;99958.88;1629680;118;25586;-75
2021/07/25 00:50:59;;;;;;;;;;;;;;;;;;;;;
2021/07/25 01:09:32;;;;;;;8.05;6.62;;;;;;;26.60;40.18;99946.98;1710565;109;25831;-81
2021/07/25 01:13:35;;;;;;;;;;;;;;;;;;;;;
2021/07/25 01:17:40;;;;;;;7.25;6.65;;;;;;;26.59;40.27;99932.33;1720075;110;25954;-77
2021/07/25 01:21:13;;;;;;;7.50;6.90;;;;;;;26.54;40.33;99931.23;1793950;108;25783;-79
2021/07/25 01:25:13;;;;;;;;;;;;;;;;;;;;;
2021/07/25 01:33:25;;;;;;;8.53;7.08;;;;;;;26.42;40.50;99934.94;1753392;111;25950;-74
2021/07/25 01:45:55;;;;;;;7.95;6.83;;;;;;;26.18;40.72;99933.85;1729458;113;25953;-76
2021/07/25 01:50:08;;;;;;;;;;;;;;;;;;;;;
2021/07/25 01:55:02;;;;;;;8.13;7.40;;;;;;;26.12;40.85;99932.36;1785247;107;25913;-81
2021/07/25 01:58:47;;;;;;;7.83;7.03;;;;;;;26.03;40.89;99928.78;1758768;111;25977;-81
2021/07/25 02:07:57;;;;;;;10.00;7.20;;;;;;;25.98;41.11;99917.91;1751160;113;25884;-80
2021/07/25 02:11:59;;;;;;;;;;;;;;;;;;;;;
2021/07/25 02:15:53;;;;;;;8.95;6.35;;;;;;;25.95;41.23;99910.91;1792482;107;26017;-74
2021/07/25 02:24:30;;;;;;;7.65;6.37;;;;;;;25.94;41.30;99897.16;1780167;110;25867;-78
2021/07/25 02:28:17;;;;;;;9.60;6.60;;;;;;;25.91;41.33;99903.98;1812075;108;26051;-76
2021/07/25 02:36:13;;;;;;;;;;;;;;;;;;;;;
2021/07/25 02:39:57;;;;;;;8.05;7.45;;;;;;;25.74;41.61;99899.40;1781560;109;26461;-73
2021/07/25 02:43:23;;;;;;;6.92;6.17;;;;;;;25.63;41.84;99895.90;1754319;109;25893;-77
2021/07/25 02:47:13;;;;;;;;;;;;;;;;;;;;;
2021/07/25 02:55:38;;;;;;;8.00;6.47;;;;;;;25.48;42.33;99887.28;1723093;112;26538;-81
2021/07/25 02:59:30;;;;;;;8.50;6.87;;;;;;;25.36;42.57;99892.69;1694825;115;25847;-82
2021/07/25 03:04:27;;;;;;;7.15;6.15;;;;;;;25.32;42.68;99884.91;1732445;112;25940;-79
2021/07/25 03:08:03;;;;;;;9.45;7.65;;;;;;;25.30;42.80;99900.10;1751001;113;25508;-74
2021/07/25 03:11:43;;;;;;;;;;;;;;;25.26;42.97;99897.18;1735947;112;25362;-81
2021/07/25 03:16:06;;;;;;;;;;;;;;;;;;;;;
2021/07/25 03:20:55;;;;;;;9.13;6.75;;;;;;;25.16;43.24;99899.39;1713216;115;26011;-79
2021/07/25 03:24:47;;;;;;;7.75;6.78;;;;;;;25.12;43.46;99902.66;1702517;110;25925;-82
2021/07/25 03:29:13;;;;;;;8.33;7.12;;;;;;;25.10;43.60;99904.48;1683601;116;25959;-82
2021/07/25 03:33:01;;;;;;;;;;;;;;;;;;;;;
2021/07/25 03:36:48;;;;;;;;;;;;;;;;;;;;;
2021/07/25 03:40:54;;;;;;;6.97;6.45;;;;;;;25.22;43.81;99904.45;1664169;114;26223;-76
2021/07/25 03:44:48;;;;;;;;;;;;;;;;;;;;;
2021/07/25 03:48:36;;;;;;;10.43;6.90;;;;;;;25.37;43.79;99915.77;1790122;108;25629;-80
2021/07/25 03:52:43;;;;;;;;;;;;;;;;;;;;;
2021/07/25 03:55:58;;;;;;;7.10;5.95;;;;;;;25.44;43.77;99925.22;1784695;106;25509;-82
2021/07/25 03:59:37;;;;;;;7.15;6.00;;;;;;;25.46;43.75;99922.50;1795415;109;25956;-80
2021/07/25 04:03:28;;;;;;;7.47;6.33;;;;;;;25.47;43.79;99924.22;1731714;113;25941;-80
2021/07/25 04:17:15;;;;;;;;;;;;;;;;;;;;;
2021/07/25 04:26:59;;;;;;;6.97;6.10;;;;;;;25.37;44.41;99950.45;1646026;119;26006;-81
2021/07/25 04:36:11;;;;;;;6.87;6.17;;;;;;;25.33;44.61;99946.66;1649784;118;26071;-81
2021/07/25 04:40:06;;;;;;;7.08;6.08;;;;;;;25.35;44.66;99947.00;1616417;120;25790;-79
2021/07/25 04:44:02;;;;;;;6.25;5.75;;;;;;;25.36;44.71;99944.73;1611540;120;25825;-79
2021/07/25 04:48:19;;;;;;;;;;;;;;;;;;;;;
2021/07/25 04:51:49;;;;;;;7.58;6.15;;;;;;;25.42;44.81;99944.93;1797450;107;25998;-81
2021/07/25 04:55:38;;;;;;;11.53;7.03;;;;;;;25.41;44.85;99945.41;1813750;107;25429;-77
2021/07/25 04:59:22;;;;;;;7.25;6.65;;;;;;;25.46;44.93;99949.66;1835970;106;25893;-79
2021/07/25 05:03:40;;;;;;;9.53;7.03;;;;;;;25.49;44.89;99952.20;1796079;108;25881;-82
2021/07/25 05:12:24;;;;;;;8.30;6.55;;;;;;;25.53;44.99;99951.12;1847461;105;25902;-79
2021/07/25 05:16:33;;;;;;;8.18;5.92;;;;;;;25.60;45.01;99956.57;1858255;105;25766;-79
2021/07/25 05:25:34;;;;;;;;;;;;;;;;;;;;;
2021/07/25 05:30:12;;;;;;;7.45;5.97;;;;;;;25.91;44.98;99961.40;1869158;104;25879;-79
2021/07/25 05:33:40;;;;;;;8.90;6.33;;;;;;;26.07;44.82;99961.56;1915115;97;25920;-79
2021/07/25 05:41:26;;;;;;;7.08;6.58;;;;;;;26.34;44.60;99956.23;2027080;95;25731;-82
2021/07/25 05:49:54;;;;;;;9.33;6.67;;;;;;;26.60;44.42;99954.14;2031705;95;25853;-82
2021/07/25 05:53:47;;;;;;;10.20;6.10;;;;;;;26.69;44.28;99959.00;2079849;93;25284;-79
2021/07/25 05:57:37;;;;;;;6.83;5.58;;;;;;;26.77;44.18;99951.48;1970563;100;25844;-75
2021/07/25 06:01:57;;;;;;;6.90;6.15;;;;;;;26.81;43.97;99954.87;1970554;100;25919;-74
2021/07/25 06:05:57;;;;;;;7.60;6.47;;;;;;;26.83;43.99;99959.20;1966255;99;26053;-79
2021/07/25 06:13:54;;;;;;;6.72;6.17;;;;;;;26.94;43.85;99956.45;1948410;98;25918;-79
2021/07/25 06:18:07;;;;;;;;;;;;;;;;;;;;;
2021/07/25 06:21:46;;;;;;;6.33;5.72;;;;;;;27.24;43.62;99968.29;1868997;104;25972;-82
2021/07/25 06:25:36;;;;;;;6.72;6.08;;;;;;;27.40;43.56;99964.31;1807858;105;26026;-81
2021/07/25 06:29:41;;;;;;;;;;;;;;;27.56;43.57;99968.39;1807758;108;26122;-81
2021/07/25 06:33:53;;;;;;;6.67;6.12;;;;;;;27.77;43.41;99959.23;1810122;107;26013;-80
2021/07/25 06:41:39;;;;;;;10.45;5.65;;;;;;;28.36;42.98;99960.89;1821991;107;25902;-81
2021/07/25 06:45:23;;;;;;;8.50;6.83;;;;;;;28.68;42.64;99967.59;1820307;105;25970;-80
2021/07/25 06:49:22;;;;;;;7.25;5.87;;;;;;;29.02;42.26;99966.50;1813052;107;25898;-77
2021/07/25 06:53:27;;;;;;;9.65;6.20;;;;;;;29.36;41.81;99960.44;1703381;112;25839;-81
2021/07/25 06:57:26;;;;;;;;;;;;;;;;;;;;;
2021/07/25 07:04:42;;;;;;;7.50;6.55;;;;;;;30.62;40.43;99962.77;1698811;116;25890;-75
2021/07/25 07:08:13;;;;;;;6.05;5.58;;;;;;;31.09;39.80;99965.97;1699325;115;25877;-80
2021/07/25 07:12:07;;;;;;;;;;;;;;;;;;;;;
2021/07/25 07:15:49;;;;;;;7.17;6.40;;;;;;;32.03;38.59;99974.65;1699090;113;25606;-78
2021/07/25 07:38:27;;;;;;;6.37;5.78;;;;;;;35.05;34.37;99977.21;1658053;113;26048;-76
2021/07/25 07:42:11;;;;;;;11.68;4.97;;;;;;;35.77;33.60;99989.95;1756758;111;25898;-81
2021/07/25 07:49:26;;;;;;;5.83;5.28;;;;;;;37.02;32.05;99985.90;1704373;115;25965;-80
2021/07/25 07:53:25;;;;;;;8.08;5.47;;;;;;;37.45;31.29;99990.03;1709977;114;25831;-77
2021/07/25 07:56:50;;;;;;;7.85;5.53;;;;;;;37.90;30.81;99989.31;1739163;113;25928;-82
2021/07/25 08:00:38;;;;;;;5.80;5.33;;;;;;;38.48;30.07;99992.66;1747839;111;25791;-80
2021/07/25 08:04:18;;;;;;;8.80;5.47;;;;;;;38.91;29.45;99997.88;1747225;111;25907;-76
2021/07/25 08:16:03;;;;;;;;;;;;;;;40.17;27.73;100005.83;1793492;108;26149;-77
2021/07/25 08:19:57;;;;;;;5.00;4.60;;;;;;;40.71;27.03;100007.22;1813120;107;25904;-77
2021/07/25 08:27:09;;;;;;;5.47;4.87;;;;;;;41.45;26.12;100004.05;1850358;104;25941;-81
2021/07/25 08:30:43;;;;;;;;;;;;;;;;;;;;;
2021/07/25 08:34:16;;;;;;;4.65;4.10;;;;;;;42.09;25.49;100009.55;1844586;105;25839;-77
2021/07/25 08:38:20;;;;;;;6.37;4.47;;;;;;;42.41;25.27;100000.86;1866325;104;26058;-80
2021/07/25 08:42:26;;;;;;;5.12;4.72;;;;;;;42.68;24.75;100007.72;1867391;104;25448;-78
2021/07/25 08:45:51;;;;;;;4.47;3.95;;;;;;;42.89;24.33;100010.67;1883501;103;25311;-81
2021/07/25 08:50:24;;;;;;;7.00;4.28;;;;;;;43.18;24.11;100013.77;1883558;103;26057;-79
2021/07/25 08:54:45;;;;;;;5.30;4.10;;;;;;;43.41;23.81;100009.09;1868620;104;25822;-80
2021/07/25 08:58:41;;;;;;;4.50;4.17;;;;;;;43.67;23.38;100013.30;1908282;102;25840;-80
2021/07/25 09:02:49;;;;;;;5.12;4.72;;;;;;;43.89;23.20;100019.23;1931178;101;25379;-80
2021/07/25 09:10:19;;;;;;;;;;;;;;;;;;;;;
2021/07/25 09:13:58;;;;;;;4.42;4.10;;;;;;;44.18;22.70;100014.78;1980394;99;25729;-79
2021/07/25 09:17:48;;;;;;;;;;;;;;;;;;;;;
2021/07/25 09:21:42;;;;;;;4.78;4.28;;;;;;;44.29;22.44;100004.70;1859649;104;25488;-77
2021/07/25 09:25:37;;;;;;;4.40;4.10;;;;;;;44.39;22.47;100006.65;1836933;107;25787;-80
2021/07/25 09:29:47;;;;;;;6.25;4.25;;;;;;;44.49;22.42;100008.56;1844664;105;25999;-77
2021/07/25 09:33:48;;;;;;;;;;;;;;;;;;;;;
2021/07/25 09:37:37;;;;;;;6.10;4.10;;;;;;;44.75;22.09;100002.52;1833893;105;25748;-79
2021/07/25 09:42:00;;;;;;;4.25;3.85;;;;;;;44.86;21.78;100004.45;1908585;102;25848;-78
2021/07/25 09:46:42;;;;;;;7.47;4.03;;;;;;;44.86;21.78;100004.45;1924921;95;25336;-79
2021/07/25 09:54:52;;;;;;;6.03;4.12;;;;;;;44.70;21.67;99972.02;1830005;107;25855;-79
2021/07/25 09:58:54;;;;;;;;;;;;;;;;;;;;;
2021/07/25 10:02:41;;;;;;;5.83;4.42;;;;;;;45.24;21.96;100005.03;1796882;106;25843;-79
2021/07/25 10:06:37;;;;;;;;;;;;;;;;;;;;;
2021/07/25 10:10:40;;;;;;;3.70;3.50;;;;;;;45.30;21.57;100008.38;1787080;107;25941;-80
2021/07/25 10:14:35;;;;;;;6.47;3.87;;;;;;;45.31;21.33;99999.58;1804190;107;25773;-79
2021/07/25 10:18:15;;;;;;;5.50;4.33;;;;;;;45.33;21.15;99997.46;1785399;108;25931;-80
2021/07/25 10:21:48;;;;;;;4.62;4.22;;;;;;;45.31;21.09;100000.43;1783535;109;25908;-79
2021/07/25 10:25:21;;;;;;;6.90;4.33;;;;;;;45.33;21.04;99992.83;1834081;104;25810;-80
2021/07/25 10:29:36;;;;;;;4.53;3.40;;;;;;;45.36;21.05;99991.03;1826430;106;26737;-79
2021/07/25 10:34:00;;;;;;;;;;;;;;;;;;;;;
2021/07/25 10:37:49;;;;;;;5.25;4.30;;;;;;;45.33;20.87;99995.59;1734869;112;25963;-80
2021/07/25 10:41:30;;;;;;;5.35;3.80;;;;;;;45.19;21.01;99965.70;1651191;115;26043;-80
2021/07/25 10:45:07;;;;;;;5.10;4.30;;;;;;;45.19;21.01;99965.70;1668938;117;26005;-79
2021/07/25 10:48:27;;;;;;;4.50;4.08;;;;;;;45.35;20.73;99976.10;1674597;116;26126;-76
2021/07/25 10:52:16;;;;;;;4.25;3.95;;;;;;;45.36;20.73;99980.02;1688247;113;25925;-81
2021/07/25 10:55:57;;;;;;;5.20;4.70;;;;;;;45.37;20.73;99973.48;1726652;112;26074;-81
2021/07/25 11:00:00;;;;;;;6.47;4.20;;;;;;;45.40;20.82;99974.46;1763601;110;25811;-78
2021/07/25 11:03:49;;;;;;;5.00;4.33;;;;;;;45.42;20.89;99978.37;1777255;109;26167;-80
2021/07/25 11:07:42;;;;;;;;;;;;;;;;;;;;;
2021/07/25 11:12:01;;;;;;;7.70;4.37;;;;;;;45.45;20.98;99974.69;1773259;106;25937;-80
2021/07/25 11:19:54;;;;;;;5.08;4.67;;;;;;;45.26;20.68;99946.49;1833178;106;25873;-80
2021/07/25 11:27:09;;;;;;;8.18;4.25;;;;;;;45.40;20.61;99968.11;1850894;105;25999;-78
2021/07/25 11:35:20;;;;;;;4.25;3.95;;;;;;;45.37;20.76;99968.51;1779156;109;25708;-79
2021/07/25 11:47:07;;;;;;;4.55;4.15;;;;;;;45.54;20.53;99952.03;1728748;112;25895;-79
2021/07/25 11:50:43;;;;;;;4.58;4.28;;;;;;;45.44;20.29;99934.46;1734585;112;25867;-77
2021/07/25 11:54:41;;;;;;;5.00;4.33;;;;;;;45.62;20.15;99955.98;1735841;114;25843;-76
2021/07/25 12:02:17;;;;;;;4.75;4.45;;;;;;;45.72;20.05;99957.00;1717127;114;25919;-77
2021/07/25 12:05:52;;;;;;;4.22;3.95;;;;;;;45.77;19.98;99955.00;1702798;115;26093;-80
2021/07/25 12:13:33;;;;;;;6.33;4.43;;;;;;;45.78;20.01;99937.44;1729399;112;25956;-79
2021/07/25 12:21:37;;;;;;;5.05;4.25;;;;;;;45.65;19.93;99943.19;1731399;112;25938;-79
2021/07/25 12:25:11;;;;;;;4.90;3.87;;;;;;;45.48;19.56;99942.35;1778227;109;25889;-80
2021/07/25 12:28:48;;;;;;;5.05;4.08;;;;;;;45.45;19.32;99933.93;1775865;109;25952;-76
2021/07/25 12:32:33;;;;;;;4.47;4.28;;;;;;;45.45;19.32;99933.93;1773675;110;25815;-79
2021/07/25 12:36:48;;;;;;;5.10;4.60;;;;;;;45.41;19.69;99918.88;1766786;110;25833;-78
2021/07/25 12:41:07;;;;;;;10.53;4.50;;;;;;;45.47;19.74;99931.87;1863697;104;25913;-78
2021/07/25 12:44:34;;;;;;;4.40;3.95;;;;;;;45.46;19.76;99925.52;1897196;104;25859;-76
2021/07/25 12:48:52;;;;;;;4.75;4.33;;;;;;;45.43;19.77;99928.64;1915142;95;25806;-79
2021/07/25 12:56:33;;;;;;;4.67;4.20;;;;;;;45.27;19.93;99915.19;1901694;104;25812;-78
2021/07/25 13:00:01;;;;;;;4.17;3.87;;;;;;;44.78;19.61;99916.87;1854562;105;25881;-78
2021/07/25 13:03:44;;;;;;;5.05;3.90;;;;;;;44.57;19.63;99921.52;1834897;105;26048;-75
2021/07/25 13:11:08;;;;;;;9.78;5.17;;;;;;;44.30;19.61;99902.00;1881734;105;26672;-78
2021/07/25 13:14:39;;;;;;;4.53;4.12;;;;;;;44.16;19.64;99905.62;1864985;105;25867;-79
2021/07/25 13:18:11;;;;;;;7.85;3.87;;;;;;;43.85;19.82;99906.70;1880335;103;25994;-81
2021/07/25 13:21:37;;;;;;;3.95;3.67;;;;;;;43.75;20.03;99896.53;1819490;106;25829;-80
2021/07/25 13:25:42;;;;;;;4.22;3.83;;;;;;;43.70;20.08;99886.11;1856162;104;25833;-80
2021/07/25 13:29:13;;;;;;;4.17;3.87;;;;;;;43.52;20.10;99890.62;1843498;105;25806;-80
2021/07/25 13:32:36;;;;;;;4.58;3.55;;;;;;;43.13;20.22;99879.35;1843218;107;25753;-79
2021/07/25 13:40:47;;;;;;;4.30;3.95;;;;;;;42.59;20.53;99863.53;1954565;99;25882;-80
2021/07/25 13:52:22;;;;;;;4.58;4.17;;;;;;;42.27;21.12;99863.25;1799540;106;26217;-74
2021/07/25 13:55:56;;;;;;;8.45;4.15;;;;;;;42.19;21.13;99853.17;1852494;106;25812;-78
2021/07/25 13:59:27;;;;;;;5.37;3.70;;;;;;;42.11;21.06;99861.46;1839926;106;25835;-74
2021/07/25 14:03:03;;;;;;;4.40;4.00;;;;;;;42.02;21.05;99859.80;1856150;105;25934;-75
2021/07/25 14:06:37;;;;;;;4.30;4.00;;;;;;;41.88;21.13;99855.42;1857583;105;25750;-79
2021/07/25 14:09:59;;;;;;;4.58;4.17;;;;;;;41.72;21.25;99857.72;1857232;106;25831;-80
2021/07/25 14:13:45;;;;;;;4.15;3.85;;;;;;;41.56;21.29;99850.95;1862625;99;25850;-77
2021/07/25 14:17:22;;;;;;;5.72;3.72;;;;;;;41.43;21.32;99858.83;1916397;101;25810;-77
2021/07/25 14:21:05;;;;;;;4.73;4.30;;;;;;;41.27;21.30;99853.73;1915161;97;25892;-80
2021/07/25 14:24:37;;;;;;;4.35;4.05;;;;;;;41.08;21.39;99859.62;1896471;101;26004;-79
2021/07/25 14:28:27;;;;;;;4.33;3.92;;;;;;;40.86;21.48;99858.41;2002852;93;25797;-76
2021/07/25 14:31:48;;;;;;;4.25;3.98;;;;;;;40.62;21.60;99863.90;2069705;94;34393;-80
2021/07/25 14:35:22;;;;;;;4.85;4.08;;;;;;;40.34;21.67;99873.24;2061170;94;25743;-80
2021/07/25 14:38:57;;;;;;;11.33;4.00;;;;;;;40.13;21.77;99862.77;1967242;99;25795;-78
2021/07/25 14:42:36;;;;;;;4.35;3.95;;;;;;;39.87;21.76;99871.05;1968426;99;25841;-79
2021/07/25 14:46:03;;;;;;;6.95;3.70;;;;;;;39.59;21.86;99876.34;2037081;97;26163;-76
2021/07/25 14:49:41;;;;;;;6.10;3.37;;;;;;;39.39;21.91;99874.41;2068353;94;25889;-80
2021/07/25 14:57:43;;;;;;;6.03;3.80;;;;;;;38.97;22.05;99864.22;1955020;100;25852;-78
2021/07/25 15:01:15;;;;;;;4.30;4.00;;;;;;;38.82;22.16;99865.83;1980358;99;25812;-80
2021/07/25 15:04:49;;;;;;;4.10;3.80;;;;;;;38.59;22.27;99858.61;1980885;99;26546;-75
2021/07/25 15:12:00;;;;;;;4.08;3.75;;;;;;;38.25;22.53;99846.53;1935123;100;25827;-78
2021/07/25 15:15:50;;;;;;;;;;;;;;;;;;;;;
2021/07/25 15:19:25;;;;;;;3.75;3.47;;;;;;;37.88;22.70;99842.54;1918708;101;25765;-76
2021/07/25 15:22:58;;;;;;;3.83;3.52;;;;;;;37.73;22.86;99846.77;1919437;101;25956;-79
2021/07/25 15:31:39;;;;;;;4.25;3.90;;;;;;;37.37;23.26;99846.64;1883967;103;25883;-78
2021/07/25 15:35:22;;;;;;;3.80;3.50;;;;;;;37.22;23.52;99850.33;1924028;101;26349;-77
2021/07/25 15:42:46;;;;;;;4.37;3.98;;;;;;;36.94;24.04;99841.23;1712435;113;25936;-80
2021/07/25 15:46:21;;;;;;;6.08;3.87;;;;;;;36.83;24.29;99838.69;1721678;113;25886;-78
2021/07/25 15:50:00;;;;;;;7.70;4.17;;;;;;;36.79;24.43;99840.84;1717064;112;25875;-78
2021/07/25 15:53:32;;;;;;;4.70;4.20;;;;;;;36.68;24.62;99836.91;1735675;111;26165;-77
2021/07/25 15:56:55;;;;;;;5.08;4.50;;;;;;;36.56;24.80;99833.51;1720998;113;25996;-80
2021/07/25 16:00:46;;;;;;;;;;;;;;;;;;;;;
2021/07/25 16:04:03;;;;;;;6.03;3.95;;;;;;;36.45;25.11;99835.47;1723835;111;26040;-80
2021/07/25 16:07:26;;;;;;;7.50;4.03;;;;;;;36.32;25.23;99841.20;1768653;109;25435;-80
2021/07/25 16:11:08;;;;;;;4.37;3.95;;;;;;;36.12;25.29;99834.41;1769112;110;25879;-75
2021/07/25 16:14:34;;;;;;;4.87;4.37;;;;;;;35.95;25.44;99841.34;1768998;105;25975;-76
2021/07/25 16:18:00;;;;;;;7.28;3.77;;;;;;;35.76;25.55;99850.78;1768696;110;25796;-76
2021/07/25 16:21:36;;;;;;;7.10;3.85;;;;;;;35.64;25.50;99848.70;1768674;105;25979;-80
2021/07/25 16:24:59;;;;;;;5.58;4.03;;;;;;;35.48;25.61;99847.81;1772545;106;25894;-77
2021/07/25 16:28:23;;;;;;;6.72;4.37;;;;;;;35.32;25.62;99843.39;1830641;104;25845;-80
2021/07/25 16:31:47;;;;;;;9.78;3.83;;;;;;;35.24;25.63;99848.64;1873552;103;25945;-78
2021/07/25 16:35:21;;;;;;;4.12;3.42;;;;;;;35.19;25.68;99850.38;2052377;91;25865;-74
2021/07/25 16:38:43;;;;;;;6.25;3.40;;;;;;;35.08;25.68;99845.05;2186917;88;25706;-79
2021/07/25 16:42:08;;;;;;;6.15;2.90;;;;;;;34.91;25.66;99842.43;2235704;88;25709;-75
2021/07/25 16:45:29;;;;;;;3.40;2.77;;;;;;;34.71;25.71;99846.00;2233270;88;25785;-80
2021/07/25 16:48:51;;;;;;;3.85;2.80;;;;;;;34.59;25.64;99846.53;2235890;88;25721;-79
2021/07/25 16:52:14;;;;;;;12.00;3.47;;;;;;;34.42;25.63;99841.17;2235688;88;25594;-78
2021/07/25 16:55:35;;;;;;;3.47;3.20;;;;;;;34.29;25.63;99841.84;2235913;86;25714;-78
2021/07/25 16:59:01;;;;;;;6.58;3.08;;;;;;;34.18;25.72;99833.28;2213312;86;44157;-77
2021/07/25 17:02:21;;;;;;;3.40;3.10;;;;;;;34.07;25.82;99829.27;2235775;88;25801;-79
2021/07/25 17:05:57;;;;;;;;;;;;;;;;;;;;;
2021/07/25 17:13:37;;;;;;;8.40;3.67;;;;;;;33.91;25.95;99826.93;2106938;92;25828;-75
2021/07/25 17:17:22;;;;;;;4.40;4.00;;;;;;;33.86;26.02;99827.82;2098789;92;25818;-80
2021/07/25 17:21:01;;;;;;;3.80;3.50;;;;;;;33.79;26.06;99827.47;2105157;92;25761;-78
2021/07/25 17:24:40;;;;;;;3.95;3.65;;;;;;;33.71;26.17;99840.73;2031638;96;25826;-79
2021/07/25 17:28:15;;;;;;;4.05;3.62;;;;;;;33.57;26.28;99836.45;2031500;97;25659;-78
2021/07/25 17:31:43;;;;;;;7.83;3.30;;;;;;;33.42;26.58;99839.03;2041831;95;25840;-77
2021/07/25 17:35:07;;;;;;;4.08;3.37;;;;;;;33.27;26.76;99845.64;2043405;96;25991;-80
2021/07/25 17:38:28;;;;;;;5.78;3.60;;;;;;;33.13;26.87;99858.89;2043115;96;26409;-77
2021/07/25 17:41:48;;;;;;;3.90;3.60;;;;;;;32.92;27.06;99861.41;2043436;95;25803;-80
2021/07/25 17:45:19;;;;;;;4.53;4.13;;;;;;;32.77;27.39;99860.77;2042998;96;25697;-79
2021/07/25 17:48:39;;;;;;;4.78;4.22;;;;;;;32.65;27.65;99856.31;2082702;91;25740;-78
2021/07/25 17:52:17;;;;;;;8.75;4.08;;;;;;;32.59;28.01;99867.56;2162002;90;25702;-75
2021/07/25 17:55:42;;;;;;;4.47;3.70;;;;;;;32.40;28.54;99864.90;2162068;90;25733;-78
2021/07/25 17:59:09;;;;;;;5.60;4.08;;;;;;;32.40;28.54;99864.90;2061490;94;26019;-76
2021/07/25 18:02:50;;;;;;;5.00;4.65;;;;;;;32.36;28.86;99867.92;2054040;94;25800;-76
2021/07/25 18:06:24;;;;;;;4.58;4.17;;;;;;;32.28;29.18;99878.44;2043291;94;25542;-76
2021/07/25 18:10:03;;;;;;;;;;;;;;;;;;;;;
2021/07/25 18:13:27;;;;;;;5.22;4.12;;;;;;;32.09;29.65;99881.14;2150550;90;25750;-76
2021/07/25 18:17:32;;;;;;;;;;;;;;;;;;;;;
2021/07/25 18:21:00;;;;;;;4.72;4.30;;;;;;;31.92;30.28;99891.81;2141421;89;25694;-80
2021/07/25 18:24:34;;;;;;;4.03;3.65;;;;;;;31.83;30.61;99890.28;2142802;90;25920;-76
2021/07/25 18:28:05;;;;;;;4.78;4.37;;;;;;;31.74;30.89;99890.44;2071963;95;25786;-80
2021/07/25 18:31:41;;;;;;;12.05;4.65;;;;;;;31.66;31.09;99891.50;2005463;97;25804;-76
2021/07/25 18:35:14;;;;;;;4.83;4.42;;;;;;;31.63;31.30;99894.41;2028380;92;26004;-80
2021/07/25 18:39:16;;;;;;;;;;;;;;;;;;;;;
2021/07/25 18:42:49;;;;;;;5.92;4.37;;;;;;;31.50;31.60;99898.45;2111328;92;26004;-81
2021/07/25 18:46:20;;;;;;;10.28;4.70;;;;;;;31.38;31.87;99905.56;2080409;93;25816;-78
2021/07/25 18:49:44;;;;;;;5.50;4.78;;;;;;;31.30;32.03;99915.99;2080286;93;25701;-76
2021/07/25 18:53:04;;;;;;;4.80;4.33;;;;;;;31.21;32.24;99917.48;2080158;95;25750;-81
2021/07/25 18:56:26;;;;;;;5.25;4.75;;;;;;;31.16;32.48;99928.22;2080218;95;26001;-80
2021/07/25 18:59:50;;;;;;;6.75;4.33;;;;;;;31.04;32.64;99938.84;2079708;95;25906;-79
2021/07/25 19:03:11;;;;;;;4.83;4.42;;;;;;;30.91;32.91;99933.92;2083254;93;25888;-79
2021/07/25 19:06:32;;;;;;;7.12;4.33;;;;;;;30.81;33.06;99935.05;2121917;92;25795;-78
2021/07/25 19:10:02;;;;;;;7.20;5.42;;;;;;;30.74;33.17;99946.28;2118139;93;25767;-80
2021/07/25 19:13:28;;;;;;;5.20;4.78;;;;;;;30.66;33.19;99948.15;2117857;93;25822;-78
2021/07/25 19:17:04;;;;;;;7.58;4.97;;;;;;;30.57;33.50;99947.41;2099257;92;25729;-81
2021/07/25 19:20:38;;;;;;;;;;;;;;;;;;;;;
2021/07/25 19:24:02;;;;;;;5.40;4.50;;;;;;;30.39;33.62;99951.33;2117045;92;26544;-76
2021/07/25 19:27:30;;;;;;;8.03;4.22;;;;;;;30.28;33.84;99955.58;2140930;89;25530;-76
2021/07/25 19:31:19;;;;;;;9.80;4.17;;;;;;;30.20;33.87;99953.00;2214216;87;25674;-81
2021/07/25 19:34:49;;;;;;;4.65;4.28;;;;;;;30.12;34.01;99957.02;2252009;85;25810;-80
2021/07/25 19:38:22;;;;;;;13.80;5.45;;;;;;;30.02;34.12;99957.70;2315167;83;25840;-80
2021/07/25 19:41:55;;;;;;;10.23;4.30;;;;;;;29.92;34.19;99950.70;2347339;80;25792;-80
2021/07/25 19:45:32;;;;;;;7.72;4.78;;;;;;;29.76;34.39;99960.69;2453916;80;25689;-79
2021/07/25 19:49:06;;;;;;;5.35;4.50;;;;;;;29.67;34.65;99947.37;2433239;80;25773;-78
2021/07/25 19:52:51;;;;;;;;;;;;;;;;;;;;;
2021/07/25 19:56:20;;;;;;;7.35;4.78;;;;;;;29.63;35.18;99952.08;2453341;80;25609;-79
2021/07/25 20:00:01;;;;;;;5.22;4.83;;;;;;;29.63;35.36;99949.39;2454607;79;25647;-74
2021/07/25 20:03:27;;;;;;;8.08;5.58;;;;;;;29.60;35.61;99957.64;2449906;80;25629;-77
2021/07/25 20:06:54;;;;;;;6.17;5.60;;;;;;;29.53;36.23;99962.08;2432156;80;25679;-80
2021/07/25 20:10:23;;;;;;;6.95;5.80;;;;;;;29.48;36.52;99962.86;2453974;80;26258;-77
2021/07/25 20:17:34;;;;;;;8.98;5.85;;;;;;;29.44;37.12;99968.05;2337075;82;25706;-74
2021/07/25 20:21:24;;;;;;;11.63;6.33;;;;;;;29.37;37.26;99964.88;2338661;83;25712;-74
2021/07/25 20:25:01;;;;;;;6.30;5.87;;;;;;;29.33;37.36;99965.98;2289224;85;25739;-79
2021/07/25 20:28:27;;;;;;;9.18;6.10;;;;;;;29.27;37.62;99973.95;2288370;86;25922;-79
2021/07/25 20:31:59;;;;;;;6.62;6.12;;;;;;;29.23;37.78;99975.11;2280593;85;25695;-79
2021/07/25 20:35:43;;;;;;;5.53;5.12;;;;;;;29.18;37.90;99986.10;2279589;85;25786;-74
2021/07/25 20:39:30;;;;;;;6.47;5.87;;;;;;;29.11;38.11;99985.23;2278744;85;25830;-80
2021/07/25 20:43:16;;;;;;;;;;;;;;;;;;;;;
2021/07/25 20:46:48;;;;;;;9.18;5.70;;;;;;;29.01;38.48;99975.99;2266109;84;25771;-80
2021/07/25 20:50:31;;;;;;;9.78;5.53;;;;;;;28.94;38.53;99970.09;2322148;82;25757;-81
2021/07/25 20:54:11;;;;;;;6.22;5.70;;;;;;;28.90;38.73;99975.27;2340458;83;25420;-79
2021/07/25 20:57:44;;;;;;;11.48;5.62;;;;;;;28.86;38.93;99974.58;2365775;82;25773;-75
2021/07/25 21:01:12;;;;;;;6.33;5.33;;;;;;;28.82;39.01;99966.33;2324917;84;25856;-78
2021/07/25 21:04:38;;;;;;;;;;;;;;;28.83;39.01;99965.84;2293896;86;25920;-79
2021/07/25 21:08:19;;;;;;;8.30;4.97;;;;;;;28.86;39.15;99961.64;2289738;83;25904;-78
2021/07/25 21:11:50;;;;;;;7.30;5.67;;;;;;;28.86;38.90;99964.33;2222306;89;25680;-81
2021/07/25 21:15:16;;;;;;;7.00;6.40;;;;;;;28.87;38.98;99959.34;2224204;89;25675;-75
2021/07/25 21:18:55;;;;;;;7.95;6.05;;;;;;;28.91;38.88;99959.54;2223313;88;25687;-80
2021/07/25 21:22:26;;;;;;;6.28;5.17;;;;;;;28.89;38.98;99960.98;2177543;89;25806;-80
2021/07/25 21:25:52;;;;;;;7.92;5.90;;;;;;;28.88;38.96;99957.89;2099192;91;26077;-75
2021/07/25 21:29:27;;;;;;;;;;;;;;;28.89;39.04;99955.61;2101497;94;26030;-75
2021/07/25 21:33:26;;;;;;;6.40;5.80;;;;;;;28.92;39.11;99955.44;2082443;94;25804;-79
2021/07/25 21:36:59;;;;;;;9.65;5.85;;;;;;;28.90;38.82;99955.99;2163690;90;25706;-80
2021/07/25 21:40:26;;;;;;;6.28;5.35;;;;;;;28.89;38.99;99953.38;2170073;91;25723;-78
2021/07/25 21:47:27;;;;;;;5.72;5.20;;;;;;;28.86;39.02;99942.38;2064929;94;25790;-75
2021/07/25 21:51:13;;;;;;;5.75;5.28;;;;;;;28.88;39.04;99931.54;2105502;92;25841;-81
2021/07/25 21:55:06;;;;;;;7.58;5.60;;;;;;;28.86;39.06;99930.79;2171563;89;25794;-74
2021/07/25 21:58:41;;;;;;;6.55;5.72;;;;;;;28.86;39.05;99940.18;2126664;92;25825;-75
2021/07/25 22:05:57;;;;;;;5.47;5.08;;;;;;;28.82;39.10;99935.92;2150491;91;25862;-80
2021/07/25 22:09:37;;;;;;;6.95;5.30;;;;;;;28.78;39.02;99933.05;2145816;90;25652;-80
2021/07/25 22:13:16;;;;;;;7.22;4.40;;;;;;;28.76;39.04;99925.09;2144303;91;25812;-75
2021/07/25 22:16:58;;;;;;;;;;;;;;;;;;;;;
2021/07/25 22:20:26;;;;;;;6.17;5.10;;;;;;;28.77;38.93;99910.72;2049768;93;25785;-80
2021/07/25 22:24:11;;;;;;;5.97;5.58;;;;;;;28.75;38.91;99915.78;1980690;99;25812;-81
2021/07/25 22:27:46;;;;;;;5.62;4.92;;;;;;;28.74;38.98;99908.70;1979653;98;25816;-80
2021/07/25 22:31:28;;;;;;;8.18;5.55;;;;;;;28.69;38.98;99916.55;1982373;97;25800;-81
2021/07/25 22:34:57;;;;;;;5.00;4.45;;;;;;;28.67;39.06;99901.01;2063807;94;25925;-80
2021/07/25 22:42:17;;;;;;;5.20;4.80;;;;;;;28.58;39.23;99904.22;1975485;96;25841;-76
2021/07/25 22:45:40;;;;;;;5.40;5.00;;;;;;;28.57;39.33;99896.28;2031326;97;25834;-80
2021/07/25 22:53:48;;;;;;;6.55;5.55;;;;;;;28.58;39.40;99891.30;1886210;102;25821;-79
2021/07/25 22:57:22;;;;;;;5.75;5.35;;;;;;;28.57;39.42;99894.45;1883708;101;25807;-79